BIH weather

Public forecast

Using degrees Fahrenheit for public forecast. Weather courtesy of forecast.io.

Current aviation weather report (METAR) for Eastern Sierra Regional Airport

Retrieved 2020/08/12 22:56 UTC (43 minutes ago):

KBIH 122256Z AUTO 10SM CLR 38/M04 A2996 RMK AO2 SLP086 T03781044

Aviation forecast (TAF) for Eastern Sierra Regional Airport

Retrieved 2020/08/12 18:42 UTC (5 hours ago):

TAF KBIH 121738Z 1218/1318 VRB05KT P6SM SKC FM121900 17010KT P6SM SKC FM122300 26012KT P6SM SKC FM130300 34008KT P6SM SKC